Time;durP1;ratioP1;P1;durP2;ratioP2;P2;SDS_P1;SDS_P2;PMS_P1;PMS_P2;Temp;Humidity;BMP_temperature;BMP_pressure;BME280_temperature;BME280_humidity;BME280_pressure;Samples;Min_cycle;Max_cycle;Signal;HPM_P1;HPM_P2
2021/06/04 00:02:26;;;;;;;6.13;5.57;;;;;;;17.06;81.01;99323.41;3630160;39;20038;-60
2021/06/04 00:04:53;;;;;;;6.00;5.50;;;;;;;17.08;80.70;99318.66;3630080;39;20050;-61
2021/06/04 00:07:20;;;;;;;6.38;5.78;;;;;;;17.09;80.62;99320.28;3629963;39;20027;-61
2021/06/04 00:09:47;;;;;;;5.70;5.20;;;;;;;17.08;80.82;99324.00;3630390;39;20386;-61
2021/06/04 00:12:15;;;;;;;6.13;5.63;;;;;;;17.14;80.94;99324.97;3631426;39;20087;-62
2021/06/04 00:14:43;;;;;;;6.50;5.85;;;;;;;17.13;80.27;99317.19;3622300;39;20043;-62
2021/06/04 00:17:14;;;;;;;6.32;5.75;;;;;;;17.08;80.69;99312.50;3622397;39;20124;-61
2021/06/04 00:19:43;;;;;;;5.50;5.05;;;;;;;17.08;80.60;99328.53;3623520;39;20057;-61
2021/06/04 00:22:12;;;;;;;6.05;5.57;;;;;;;17.05;79.85;99318.28;3632962;39;20403;-61
2021/06/04 00:24:42;;;;;;;5.28;4.82;;;;;;;16.99;80.63;99329.88;3632617;39;20083;-61
2021/06/04 00:27:10;;;;;;;5.68;5.18;;;;;;;16.95;80.17;99321.47;3631415;39;20031;-61
2021/06/04 00:29:39;;;;;;;6.47;5.88;;;;;;;16.92;80.40;99316.56;3621941;39;20390;-61
2021/06/04 00:32:07;;;;;;;6.28;5.75;;;;;;;16.84;79.93;99324.88;3631622;39;20391;-62
2021/06/04 00:34:36;;;;;;;5.13;4.72;;;;;;;16.78;80.75;99328.44;3631567;39;20049;-62
2021/06/04 00:37:05;;;;;;;6.50;5.90;;;;;;;16.78;80.69;99328.44;3621229;39;20350;-62
2021/06/04 00:39:35;;;;;;;6.60;6.10;;;;;;;16.75;80.45;99323.53;3630623;39;20043;-62
2021/06/04 00:42:06;;;;;;;6.03;5.43;;;;;;;16.65;80.52;99323.16;3620935;39;20073;-62
2021/06/04 00:44:34;;;;;;;5.97;5.47;;;;;;;16.63;81.20;99326.06;3620570;39;20423;-61
2021/06/04 00:47:03;;;;;;;6.22;5.70;;;;;;;16.66;80.98;99324.81;3629811;39;20050;-61
2021/06/04 00:49:31;;;;;;;6.13;5.50;;;;;;;16.58;81.19;99326.72;3620222;39;20023;-61
2021/06/04 00:52:07;;;;;;;5.93;5.43;;;;;;;16.48;81.08;99331.72;3620548;39;20051;-61
2021/06/04 00:54:37;;;;;;;5.97;4.97;;;;;;;16.49;81.17;99329.88;3630065;39;20047;-62
2021/06/04 00:57:07;;;;;;;7.40;6.20;;;;;;;16.48;81.25;99326.38;3619885;39;20071;-61
2021/06/04 00:59:38;;;;;;;6.85;6.20;;;;;;;16.43;81.30;99328.91;3620498;39;20310;-61
2021/06/04 01:02:15;;;;;;;8.18;6.40;;;;;;;16.50;80.94;99326.19;3620291;39;20047;-60
2021/06/04 01:04:44;;;;;;;6.38;5.88;;;;;;;16.56;81.32;99327.97;3630043;39;20126;-61
2021/06/04 01:07:23;;;;;;;5.65;5.13;;;;;;;16.63;80.96;99336.75;3629716;39;20045;-61
2021/06/04 01:10:13;;;;;;;5.82;5.32;;;;;;;16.75;80.56;99337.69;3630217;39;20076;-61
2021/06/04 01:12:51;;;;;;;8.23;6.53;;;;;;;16.76;80.53;99335.84;3628623;39;20050;-61
2021/06/04 01:15:32;;;;;;;7.65;6.13;;;;;;;16.71;80.11;99336.47;3620103;39;20299;-61
2021/06/04 01:18:06;;;;;;;8.13;6.50;;;;;;;16.63;80.42;99334.06;3629289;39;20111;-61
2021/06/04 01:20:40;;;;;;;6.22;5.72;;;;;;;16.54;80.12;99332.72;3620450;39;20053;-61
2021/06/04 01:23:25;;;;;;;6.95;5.85;;;;;;;16.58;80.62;99333.91;3629901;39;20043;-61
2021/06/04 01:25:58;;;;;;;6.07;5.47;;;;;;;16.66;80.05;99332.81;3629655;39;20049;-61
2021/06/04 01:28:31;;;;;;;6.30;5.80;;;;;;;16.66;80.02;99325.63;3619647;39;20042;-61
2021/06/04 01:31:06;;;;;;;5.63;5.00;;;;;;;16.68;80.20;99339.56;3620303;39;20062;-61
2021/06/04 01:33:41;;;;;;;5.38;4.90;;;;;;;16.63;80.03;99331.41;3629496;39;20479;-62
2021/06/04 01:36:08;;;;;;;6.20;5.68;;;;;;;16.56;79.88;99335.97;3629631;39;20389;-61
2021/06/04 01:38:41;;;;;;;5.72;5.32;;;;;;;16.47;80.07;99332.75;3619926;39;20154;-61
2021/06/04 01:41:14;;;;;;;5.78;4.72;;;;;;;16.47;80.41;99323.94;3629948;39;20365;-61
2021/06/04 01:43:45;;;;;;;;;;;;;;;16.47;80.11;99323.94;3630090;39;20078;-61
2021/06/04 01:46:17;;;;;;;5.22;4.65;;;;;;;16.44;80.37;99327.84;3629625;39;20499;-61
2021/06/04 01:48:49;;;;;;;6.03;5.43;;;;;;;16.41;80.55;99328.31;3629342;39;20074;-61
2021/06/04 01:51:26;;;;;;;6.40;5.80;;;;;;;16.40;80.68;99332.00;3619418;39;20031;-61
2021/06/04 01:54:06;;;;;;;6.63;5.93;;;;;;;16.40;80.58;99336.50;3620084;39;20043;-60
2021/06/04 01:56:39;;;;;;;6.10;5.50;;;;;;;16.35;80.89;99331.84;3620154;39;20050;-60
2021/06/04 01:59:14;;;;;;;6.28;5.78;;;;;;;16.31;80.84;99330.63;3629937;39;20307;-60
2021/06/04 02:01:47;;;;;;;6.10;5.60;;;;;;;16.24;80.86;99332.53;3629762;39;20046;-60
2021/06/04 02:04:19;;;;;;;5.93;5.30;;;;;;;16.19;81.00;99333.19;3620217;39;20050;-61
2021/06/04 02:06:48;;;;;;;;;;;;;;;16.22;81.18;99337.28;3630113;39;20050;-61
2021/06/04 02:09:20;;;;;;;6.63;5.97;;;;;;;16.21;80.88;99339.13;3629371;39;20011;-61
2021/06/04 02:11:56;;;;;;;6.40;5.90;;;;;;;16.13;81.36;99339.38;3619779;39;20122;-60
2021/06/04 02:14:32;;;;;;;5.35;4.88;;;;;;;16.12;81.84;99344.91;3620405;39;20364;-60
2021/06/04 02:17:21;;;;;;;5.85;5.35;;;;;;;16.21;81.66;99338.31;3619790;39;20425;-60
2021/06/04 02:20:00;;;;;;;6.38;5.88;;;;;;;16.19;81.01;99338.50;3619969;39;20084;-61
2021/06/04 02:22:50;;;;;;;6.80;6.25;;;;;;;16.09;80.55;99328.31;3620294;39;20042;-60
2021/06/04 02:25:26;;;;;;;6.55;5.95;;;;;;;16.07;81.04;99332.22;3629766;39;20307;-60
2021/06/04 02:28:03;;;;;;;6.95;6.22;;;;;;;16.05;81.42;99327.13;3619836;39;20107;-61
2021/06/04 02:30:36;;;;;;;6.32;5.72;;;;;;;16.03;81.35;99325.69;3629191;39;20073;-61
2021/06/04 02:33:10;;;;;;;6.15;5.63;;;;;;;16.02;81.50;99327.53;3629662;39;20085;-60
2021/06/04 02:35:41;;;;;;;6.75;6.25;;;;;;;16.02;81.51;99330.22;3629514;39;20130;-60
2021/06/04 02:38:15;;;;;;;6.93;6.32;;;;;;;16.03;81.25;99323.84;3620046;39;20043;-60
2021/06/04 02:40:46;;;;;;;6.80;6.20;;;;;;;15.97;81.06;99321.22;3624427;39;20051;-60
2021/06/04 02:43:19;;;;;;;6.32;5.72;;;;;;;15.91;81.48;99325.56;3625961;39;20058;-63
2021/06/04 02:45:52;;;;;;;5.57;5.15;;;;;;;15.90;82.12;99331.94;3625262;39;20042;-60
2021/06/04 02:48:23;;;;;;;6.15;5.13;;;;;;;16.01;82.23;99333.09;3624371;39;20292;-61
2021/06/04 02:50:56;;;;;;;5.15;4.75;;;;;;;16.07;81.70;99330.38;3633445;39;20024;-60
2021/06/04 02:53:28;;;;;;;4.95;4.55;;;;;;;16.13;81.35;99334.06;3625891;39;20051;-60
2021/06/04 02:56:11;;;;;;;5.60;5.18;;;;;;;16.16;81.20;99333.59;3621961;39;20055;-60
2021/06/04 02:58:45;;;;;;;6.57;5.97;;;;;;;16.18;80.31;99336.06;3619815;39;20072;-60
2021/06/04 03:01:13;;;;;;;;;;;;;;;16.07;80.29;99335.72;3629945;39;20042;-62
2021/06/04 03:03:47;;;;;;;7.80;6.90;;;;;;;16.04;80.55;99333.50;3620673;39;19943;-60
2021/06/04 03:06:17;;;;;;;5.77;5.07;;;;;;;15.98;80.85;99338.84;3630706;39;20345;-60
2021/06/04 03:08:46;;;;;;;5.15;4.63;;;;;;;15.99;81.16;99348.50;3630353;39;20043;-60
2021/06/04 03:11:15;;;;;;;4.03;3.72;;;;;;;16.04;81.13;99351.31;3630634;39;20055;-60
2021/06/04 03:13:44;;;;;;;5.25;4.75;;;;;;;16.10;80.70;99358.47;3621262;39;20066;-60
2021/06/04 03:16:15;;;;;;;5.75;4.93;;;;;;;16.06;80.24;99350.09;3621001;39;20423;-60
2021/06/04 03:18:45;;;;;;;5.78;5.20;;;;;;;15.97;80.41;99356.72;3620954;39;20089;-61
2021/06/04 03:21:17;;;;;;;10.75;9.23;;;;;;;15.99;80.70;99353.81;3621312;39;20054;-61
2021/06/04 03:23:46;;;;;;;8.48;7.78;;;;;;;16.00;80.76;99361.63;3630552;39;20127;-61
2021/06/04 03:26:17;;;;;;;6.80;6.20;;;;;;;16.02;80.69;99356.88;3630664;39;20051;-61
2021/06/04 03:28:48;;;;;;;6.07;5.13;;;;;;;16.08;80.63;99357.84;3620673;39;20082;-61
2021/06/04 03:31:19;;;;;;;6.30;5.72;;;;;;;16.10;80.59;99356.63;3620853;39;20042;-61
2021/06/04 03:33:50;;;;;;;6.78;6.18;;;;;;;16.09;80.20;99356.84;3630627;39;20027;-61
2021/06/04 03:36:24;;;;;;;5.93;5.53;;;;;;;15.99;80.56;99364.50;3630424;39;20434;-61
2021/06/04 03:38:53;;;;;;;7.15;4.70;;;;;;;16.04;80.70;99362.00;3630248;39;20073;-61
2021/06/04 03:41:27;;;;;;;7.10;6.40;;;;;;;16.10;80.21;99353.16;3630356;39;20043;-61
2021/06/04 03:43:58;;;;;;;6.40;5.90;;;;;;;16.01;80.23;99355.25;3630322;39;20388;-61
2021/06/04 03:46:30;;;;;;;6.10;5.60;;;;;;;15.96;80.91;99354.25;3621141;39;20054;-61
2021/06/04 03:48:59;;;;;;;6.63;6.03;;;;;;;16.00;80.72;99352.78;3620519;39;20441;-61
2021/06/04 03:51:33;;;;;;;44.50;33.17;;;;;;;15.99;80.83;99348.50;3621035;39;20046;-61
2021/06/04 03:54:00;;;;;;;7.13;6.43;;;;;;;16.06;80.81;99355.41;3630665;39;20055;-62
2021/06/04 03:56:30;;;;;;;6.55;5.63;;;;;;;16.15;80.79;99365.84;3631093;39;20046;-62
2021/06/04 03:58:59;;;;;;;5.63;5.15;;;;;;;16.28;80.48;99361.22;3630788;39;20046;-60
2021/06/04 04:01:31;;;;;;;6.32;5.25;;;;;;;16.43;79.93;99360.91;3621664;39;20055;-61
2021/06/04 04:03:59;;;;;;;9.65;5.63;;;;;;;16.56;79.37;99370.66;3631078;39;20132;-61
2021/06/04 04:06:26;;;;;;;7.13;5.53;;;;;;;16.52;78.99;99364.13;3631965;39;20039;-60
2021/06/04 04:08:54;;;;;;;6.63;6.07;;;;;;;16.43;79.24;99362.78;3621444;39;20322;-61
2021/06/04 04:11:21;;;;;;;6.57;5.97;;;;;;;16.41;79.43;99365.66;3630480;39;20051;-60
2021/06/04 04:13:49;;;;;;;5.68;5.18;;;;;;;16.42;79.67;99369.16;3630722;39;20058;-60
2021/06/04 04:16:17;;;;;;;5.93;5.43;;;;;;;16.43;79.27;99371.59;3630543;39;20091;-60
2021/06/04 04:18:45;;;;;;;5.57;5.18;;;;;;;16.49;79.48;99364.56;3630745;39;20475;-60
2021/06/04 04:21:13;;;;;;;5.22;4.82;;;;;;;16.46;79.44;99362.34;3631694;39;20050;-60
2021/06/04 04:23:43;;;;;;;5.05;4.75;;;;;;;16.45;79.08;99358.00;3632113;39;20046;-60
2021/06/04 04:26:13;;;;;;;7.07;5.10;;;;;;;16.44;79.30;99362.53;3631772;39;20047;-60
2021/06/04 04:28:45;;;;;;;7.22;6.50;;;;;;;16.41;78.93;99367.50;3621646;39;20053;-60
2021/06/04 04:31:17;;;;;;;8.10;7.30;;;;;;;16.39;79.65;99372.25;3630654;39;20084;-60
2021/06/04 04:33:46;;;;;;;11.02;7.55;;;;;;;16.40;79.23;99374.69;3621493;39;20031;-60
2021/06/04 04:36:17;;;;;;;8.85;7.95;;;;;;;16.42;79.08;99380.63;3630372;39;20042;-61
2021/06/04 04:38:44;;;;;;;7.00;6.30;;;;;;;16.40;78.97;99374.69;3630252;39;20042;-60
2021/06/04 04:41:12;;;;;;;5.38;4.97;;;;;;;16.35;79.06;99380.66;3630437;39;20051;-60
2021/06/04 04:43:50;;;;;;;6.93;6.32;;;;;;;16.38;79.11;99389.28;3630407;39;20023;-61
2021/06/04 04:46:19;;;;;;;6.55;6.05;;;;;;;16.32;78.86;99389.09;3630275;39;20031;-61
2021/06/04 04:48:48;;;;;;;6.20;4.75;;;;;;;16.30;79.32;99393.03;3630252;39;20033;-61
2021/06/04 04:51:17;;;;;;;21.35;17.40;;;;;;;16.33;79.17;99390.75;3629895;39;20122;-62
2021/06/04 04:53:44;;;;;;;6.85;6.15;;;;;;;16.30;79.06;99396.50;3629854;39;20026;-61
2021/06/04 04:56:12;;;;;;;6.03;5.43;;;;;;;16.32;79.56;99386.44;3630854;39;20324;-61
2021/06/04 04:58:40;;;;;;;6.47;5.50;;;;;;;16.39;79.80;99382.91;3629536;39;20076;-61
2021/06/04 05:01:10;;;;;;;6.10;5.50;;;;;;;16.43;79.03;99381.44;3630012;39;20083;-61
2021/06/04 05:03:39;;;;;;;8.48;5.65;;;;;;;16.46;79.09;99379.16;3630233;39;20050;-61
2021/06/04 05:06:09;;;;;;;5.82;5.30;;;;;;;16.42;79.34;99383.31;3629805;39;20046;-61
2021/06/04 05:08:37;;;;;;;5.03;4.70;;;;;;;16.54;79.61;99383.44;3619976;39;20046;-61
2021/06/04 05:11:05;;;;;;;5.95;5.03;;;;;;;16.69;79.10;99367.06;3629861;39;20071;-61
2021/06/04 05:13:33;;;;;;;9.57;8.73;;;;;;;16.69;78.87;99367.88;3629682;39;20417;-62
2021/06/04 05:16:03;;;;;;;6.43;5.18;;;;;;;16.81;79.04;99368.84;3629772;39;20354;-61
2021/06/04 05:18:31;;;;;;;5.35;4.95;;;;;;;16.89;78.89;99374.94;3629660;39;20042;-61
2021/06/04 05:20:59;;;;;;;10.93;6.65;;;;;;;17.03;78.48;99376.47;3630567;39;20047;-61
2021/06/04 05:23:28;;;;;;;24.70;13.70;;;;;;;17.14;77.97;99382.91;3630539;39;20356;-61
2021/06/04 05:25:56;;;;;;;24.40;12.25;;;;;;;17.13;77.68;99371.41;3629902;39;20035;-62
2021/06/04 05:28:25;;;;;;;23.38;12.20;;;;;;;16.99;77.87;99376.09;3630095;39;20038;-60
2021/06/04 05:30:55;;;;;;;20.08;9.70;;;;;;;17.00;78.54;99374.22;3630446;39;20065;-60
2021/06/04 05:33:26;;;;;;;10.57;6.65;;;;;;;17.00;79.06;99372.38;3631114;39;20054;-60
2021/06/04 05:35:53;;;;;;;8.02;6.20;;;;;;;17.07;79.18;99378.47;3621345;39;20046;-60
2021/06/04 05:38:21;;;;;;;8.07;6.80;;;;;;;17.19;78.99;99370.53;3630051;39;20066;-60
2021/06/04 05:40:50;;;;;;;6.20;5.60;;;;;;;17.20;77.61;99374.03;3630700;39;20054;-60
2021/06/04 05:43:25;;;;;;;5.53;5.13;;;;;;;17.14;78.27;99365.03;3629954;39;20078;-61
2021/06/04 05:45:53;;;;;;;6.43;5.45;;;;;;;17.30;78.48;99377.00;3630196;39;20051;-61
2021/06/04 05:48:23;;;;;;;5.80;5.30;;;;;;;17.41;77.83;99370.91;3630040;39;20114;-61
2021/06/04 05:50:52;;;;;;;5.40;5.00;;;;;;;17.39;77.42;99366.81;3629638;39;20082;-60
2021/06/04 05:53:23;;;;;;;8.93;5.30;;;;;;;17.39;76.90;99370.34;3629712;39;20023;-60
2021/06/04 05:55:53;;;;;;;6.43;5.32;;;;;;;17.41;76.97;99373.59;3629559;39;20046;-61
2021/06/04 05:58:23;;;;;;;5.65;5.18;;;;;;;17.38;77.37;99378.56;3629449;39;20043;-61
2021/06/04 06:00:55;;;;;;;7.28;5.72;;;;;;;17.50;77.67;99382.94;3619805;39;20049;-61
2021/06/04 06:03:25;;;;;;;6.45;5.90;;;;;;;17.56;77.66;99390.06;3629422;39;20057;-62
2021/06/04 06:05:53;;;;;;;6.93;6.15;;;;;;;17.65;77.61;99387.91;3629349;39;20073;-60
2021/06/04 06:08:21;;;;;;;10.52;6.60;;;;;;;17.77;77.62;99385.34;3629266;39;20091;-61
2021/06/04 06:10:48;;;;;;;6.57;5.88;;;;;;;17.85;77.63;99387.69;3630025;39;20045;-61
2021/06/04 06:13:18;;;;;;;6.72;6.22;;;;;;;18.01;77.25;99388.94;3629217;39;20388;-61
2021/06/04 06:15:46;;;;;;;6.82;6.07;;;;;;;18.18;77.14;99400.63;3629797;39;20031;-62
2021/06/04 06:18:14;;;;;;;6.78;6.28;;;;;;;18.34;76.68;99406.38;3619630;39;20053;-62
2021/06/04 06:20:43;;;;;;;6.82;6.25;;;;;;;18.46;76.45;99408.03;3629366;39;20078;-61
2021/06/04 06:23:13;;;;;;;6.20;5.65;;;;;;;18.55;76.27;99413.88;3629379;39;20052;-62
2021/06/04 06:25:46;;;;;;;6.75;6.15;;;;;;;18.73;76.15;99404.97;3629384;39;20453;-62
2021/06/04 06:28:19;;;;;;;7.10;6.50;;;;;;;18.74;75.11;99402.06;3628724;39;20035;-62
2021/06/04 06:30:47;;;;;;;7.68;6.72;;;;;;;18.86;74.41;99409.28;3629718;39;20053;-62
2021/06/04 06:33:15;;;;;;;7.13;6.43;;;;;;;18.90;74.94;99405.09;3620182;39;20062;-61
2021/06/04 06:35:46;;;;;;;8.20;6.45;;;;;;;18.96;74.60;99404.19;3629471;39;20062;-62
2021/06/04 06:38:16;;;;;;;6.32;5.78;;;;;;;19.08;74.44;99406.88;3628442;39;20318;-62
2021/06/04 06:40:44;;;;;;;7.70;6.97;;;;;;;19.19;73.30;99412.22;3619587;39;20043;-62
2021/06/04 06:43:13;;;;;;;7.40;6.80;;;;;;;19.05;73.69;99406.28;3629237;39;20336;-61
2021/06/04 06:45:42;;;;;;;6.35;5.85;;;;;;;18.98;73.38;99399.38;3619525;39;20111;-62
2021/06/04 06:48:10;;;;;;;6.00;5.47;;;;;;;18.87;74.27;99402.91;3628673;39;20178;-61
2021/06/04 06:50:39;;;;;;;7.07;6.25;;;;;;;18.99;74.87;99417.94;3619653;39;20046;-62
2021/06/04 06:53:08;;;;;;;7.13;6.45;;;;;;;19.06;74.49;99415.13;3628852;39;20050;-61
2021/06/04 06:55:38;;;;;;;6.72;5.63;;;;;;;19.19;74.34;99424.81;3629427;39;20396;-63
2021/06/04 06:58:06;;;;;;;7.22;6.63;;;;;;;19.32;73.92;99415.72;3628777;39;20054;-62
2021/06/04 07:00:36;;;;;;;7.22;6.63;;;;;;;19.30;73.24;99414.06;3628795;39;20051;-62
2021/06/04 07:03:07;;;;;;;7.97;7.10;;;;;;;19.22;73.26;99419.78;3629171;39;20469;-60
2021/06/04 07:05:35;;;;;;;7.72;6.90;;;;;;;19.23;73.84;99412.59;3629021;39;20319;-61
2021/06/04 07:08:04;;;;;;;8.63;7.72;;;;;;;19.32;74.31;99416.53;3628515;39;20082;-61
2021/06/04 07:10:32;;;;;;;9.50;8.48;;;;;;;19.48;73.72;99415.81;3628669;39;20022;-62
2021/06/04 07:13:02;;;;;;;8.73;8.02;;;;;;;19.63;73.19;99426.06;3628795;39;20054;-61
2021/06/04 07:15:30;;;;;;;7.55;6.85;;;;;;;19.69;72.50;99425.13;3628936;39;20081;-61
2021/06/04 07:17:59;;;;;;;7.30;6.70;;;;;;;19.82;71.77;99421.34;3628508;39;20058;-61
2021/06/04 07:20:31;;;;;;;8.10;6.93;;;;;;;19.86;71.65;99422.50;3629022;39;20083;-61
2021/06/04 07:23:01;;;;;;;8.48;7.57;;;;;;;19.90;70.70;99420.16;3629474;39;20038;-61
2021/06/04 07:25:31;;;;;;;7.70;7.00;;;;;;;19.70;71.39;99421.38;3628995;39;20062;-61
2021/06/04 07:27:59;;;;;;;8.90;7.78;;;;;;;19.72;71.97;99419.28;3619087;39;20035;-63
2021/06/04 07:30:30;;;;;;;8.15;7.00;;;;;;;19.71;71.71;99423.00;3628714;39;20046;-60
2021/06/04 07:33:00;;;;;;;7.15;6.55;;;;;;;19.69;71.92;99424.31;3629763;39;20047;-62
2021/06/04 07:35:31;;;;;;;6.97;6.47;;;;;;;19.80;70.97;99426.16;3628950;39;20054;-63
2021/06/04 07:37:58;;;;;;;7.15;6.60;;;;;;;19.86;71.44;99419.03;3628715;39;20090;-63
2021/06/04 07:40:28;;;;;;;10.40;7.57;;;;;;;19.93;71.54;99425.88;3619255;39;20082;-61
2021/06/04 07:42:57;;;;;;;7.78;6.38;;;;;;;19.90;71.84;99425.53;3628873;39;20106;-60
2021/06/04 07:45:31;;;;;;;8.40;7.30;;;;;;;19.98;71.21;99428.66;3619211;39;20054;-61
2021/06/04 07:47:58;;;;;;;8.10;7.45;;;;;;;20.08;71.23;99428.03;3628360;39;20051;-61
2021/06/04 07:50:26;;;;;;;7.78;7.05;;;;;;;20.08;71.09;99424.53;3620076;39;20057;-62
2021/06/04 07:52:55;;;;;;;6.63;6.03;;;;;;;20.04;70.48;99425.03;3629896;39;20039;-61
2021/06/04 07:55:26;;;;;;;6.43;5.90;;;;;;;20.08;70.76;99430.72;3630394;39;20053;-61
2021/06/04 07:57:53;;;;;;;6.97;6.28;;;;;;;20.26;71.12;99424.34;3620579;39;20084;-62
2021/06/04 08:00:26;;;;;;;7.55;6.60;;;;;;;20.47;70.49;99418.28;3620737;39;20058;-61
2021/06/04 08:02:54;;;;;;;6.15;5.53;;;;;;;20.65;69.90;99425.31;3630358;39;20050;-61
2021/06/04 08:05:24;;;;;;;7.50;6.75;;;;;;;20.83;70.33;99428.84;3630249;39;20059;-61
2021/06/04 08:07:51;;;;;;;12.77;11.60;;;;;;;20.94;69.58;99428.78;3620715;39;20066;-61
2021/06/04 08:10:21;;;;;;;10.95;9.35;;;;;;;20.95;69.28;99432.28;3630092;39;20054;-62
2021/06/04 08:12:48;;;;;;;9.70;8.75;;;;;;;20.96;68.23;99425.84;3630428;39;20042;-62
2021/06/04 08:15:21;;;;;;;5.82;5.32;;;;;;;20.93;68.48;99435.19;3630571;39;20058;-62
2021/06/04 08:17:49;;;;;;;6.65;5.00;;;;;;;21.02;68.79;99427.53;3629987;39;20050;-61
2021/06/04 08:20:22;;;;;;;6.10;4.68;;;;;;;21.10;68.36;99427.09;3630706;39;20055;-62
2021/06/04 08:22:50;;;;;;;;;;;;;;;21.29;67.24;99419.59;3621206;39;20050;-61
2021/06/04 08:25:22;;;;;;;7.32;4.65;;;;;;;21.33;67.16;99417.25;3629983;39;19938;-61
2021/06/04 08:27:49;;;;;;;4.88;4.45;;;;;;;21.43;68.16;99417.38;3664472;22;20075;-66
2021/06/04 08:30:18;;;;;;;7.95;4.70;;;;;;;21.54;67.64;99410.28;3630040;39;20129;-65
2021/06/04 08:32:45;;;;;;;5.30;4.38;;;;;;;21.65;67.48;99406.66;3630037;39;20381;-66
2021/06/04 08:35:14;;;;;;;9.48;6.40;;;;;;;21.76;66.96;99406.53;3633627;39;20444;-65
2021/06/04 08:37:42;;;;;;;6.00;5.50;;;;;;;21.87;66.18;99401.25;3627548;39;20042;-64
2021/06/04 08:40:13;;;;;;;5.97;5.38;;;;;;;21.91;66.04;99399.69;3635591;39;20068;-64
2021/06/04 08:42:57;;;;;;;5.95;4.28;;;;;;;21.95;65.54;99396.25;3635188;39;20042;-64
2021/06/04 08:45:31;;;;;;;5.45;4.70;;;;;;;21.98;66.36;99398.44;3633312;39;20383;-65
2021/06/04 08:48:10;;;;;;;;;;;;;;;22.12;66.05;99398.03;3632288;39;20043;-66
2021/06/04 08:50:48;;;;;;;5.10;4.70;;;;;;;22.25;65.96;99397.69;3631258;39;19954;-65
2021/06/04 08:53:22;;;;;;;5.10;4.65;;;;;;;22.29;65.22;99393.41;3631169;39;20057;-68
2021/06/04 08:55:59;;;;;;;7.95;5.75;;;;;;;22.41;65.24;99395.91;3630865;39;20034;-67
2021/06/04 08:58:43;;;;;;;4.40;4.10;;;;;;;22.54;65.60;99392.00;3629788;39;20418;-64
2021/06/04 09:01:14;;;;;;;4.97;4.57;;;;;;;22.71;63.92;99387.28;3620339;39;20414;-65
2021/06/04 09:03:46;;;;;;;5.10;4.28;;;;;;;22.70;64.01;99391.06;3629988;39;20063;-64
2021/06/04 09:06:25;;;;;;;4.95;4.55;;;;;;;22.81;63.62;99384.66;3630087;39;20082;-65
2021/06/04 09:08:53;;;;;;;5.45;4.13;;;;;;;22.90;62.98;99382.28;3630579;39;20043;-64
2021/06/04 09:11:27;;;;;;;4.55;3.90;;;;;;;22.95;63.03;99375.09;3632831;39;20086;-63
2021/06/04 09:13:57;;;;;;;5.03;3.60;;;;;;;23.09;61.65;99382.72;3622077;39;20051;-65
2021/06/04 09:16:33;;;;;;;3.60;3.30;;;;;;;23.16;61.13;99383.31;3631777;39;20440;-64
2021/06/04 09:19:08;;;;;;;4.40;4.00;;;;;;;23.22;60.86;99385.75;3632384;39;20379;-64
2021/06/04 09:21:41;;;;;;;4.57;4.18;;;;;;;23.15;61.39;99374.41;3633089;39;20388;-65
2021/06/04 09:24:14;;;;;;;3.90;3.60;;;;;;;23.26;61.87;99372.56;3633558;39;20042;-64
2021/06/04 09:26:41;;;;;;;5.30;4.30;;;;;;;23.39;61.74;99377.53;3632978;39;20042;-65
2021/06/04 09:29:20;;;;;;;5.10;4.18;;;;;;;23.47;61.29;99376.19;3632169;39;20079;-64
2021/06/04 09:31:51;;;;;;;6.30;3.83;;;;;;;23.59;61.09;99370.56;3632657;39;20346;-64
2021/06/04 09:34:30;;;;;;;4.72;4.32;;;;;;;23.76;60.63;99370.38;3632309;39;20047;-65
2021/06/04 09:36:59;;;;;;;4.43;4.03;;;;;;;23.89;59.21;99368.00;3632126;39;20351;-63
2021/06/04 09:39:39;;;;;;;7.85;4.57;;;;;;;24.10;58.88;99376.97;3632729;39;20063;-64
2021/06/04 09:42:16;;;;;;;7.95;4.57;;;;;;;24.31;57.64;99367.00;3631787;39;20054;-63
2021/06/04 09:44:58;;;;;;;5.47;3.90;;;;;;;24.41;56.79;99364.34;3620420;39;20084;-65
2021/06/04 09:47:38;;;;;;;6.22;3.92;;;;;;;24.48;56.06;99361.34;3629490;39;20043;-65
2021/06/04 09:50:17;;;;;;;3.92;3.50;;;;;;;24.49;56.53;99359.47;3620277;39;20057;-68
2021/06/04 09:52:45;;;;;;;4.18;3.47;;;;;;;24.45;56.65;99353.78;3629843;39;20083;-64
2021/06/04 09:55:26;;;;;;;8.27;5.60;;;;;;;24.65;56.47;99358.38;3629763;39;20062;-65
2021/06/04 09:58:20;;;;;;;3.58;2.95;;;;;;;24.83;54.93;99357.84;3629316;39;20045;-65
2021/06/04 10:01:04;;;;;;;5.90;3.05;;;;;;;24.98;53.59;99356.97;3624162;39;20098;-65
2021/06/04 10:03:36;;;;;;;2.88;2.42;;;;;;;24.95;51.70;99352.13;3629860;39;20288;-66
2021/06/04 10:06:17;;;;;;;4.72;3.47;;;;;;;24.87;52.27;99344.59;3620086;39;20617;-66
2021/06/04 10:08:47;;;;;;;4.68;3.05;;;;;;;24.85;51.81;99350.25;3629241;39;20299;-65
2021/06/04 10:11:21;;;;;;;4.95;3.45;;;;;;;24.78;52.75;99343.50;3629595;39;20436;-63
2021/06/04 10:13:52;;;;;;;3.55;3.13;;;;;;;24.80;53.90;99334.03;3628980;39;20053;-63
2021/06/04 10:16:47;;;;;;;6.88;3.42;;;;;;;24.88;54.15;99335.38;3620280;39;20050;-65
2021/06/04 10:19:25;;;;;;;3.65;3.30;;;;;;;25.10;53.67;99326.97;3619556;39;20130;-64
2021/06/04 10:22:08;;;;;;;4.18;3.28;;;;;;;25.21;53.44;99331.25;3629461;39;20434;-65
2021/06/04 10:24:38;;;;;;;4.50;3.00;;;;;;;25.24;53.16;99328.00;3629573;39;20058;-65
2021/06/04 10:27:09;;;;;;;4.63;3.55;;;;;;;25.23;52.28;99323.69;3619427;39;20039;-65
2021/06/04 10:29:37;;;;;;;3.40;3.03;;;;;;;25.28;51.46;99312.03;3629372;39;20054;-64
2021/06/04 10:32:10;;;;;;;3.58;2.72;;;;;;;25.31;51.72;99308.75;3629438;39;20023;-64
2021/06/04 10:34:53;;;;;;;3.00;2.80;;;;;;;25.37;51.89;99308.47;3629511;39;20375;-65
2021/06/04 10:37:26;;;;;;;3.42;3.13;;;;;;;25.49;51.94;99310.84;3619429;39;20042;-64
2021/06/04 10:40:01;;;;;;;5.65;4.40;;;;;;;25.77;51.06;99298.56;3629212;39;20103;-65
2021/06/04 10:42:42;;;;;;;6.80;3.35;;;;;;;26.09;49.97;99302.69;3620028;39;20467;-64
2021/06/04 10:45:17;;;;;;;3.13;2.83;;;;;;;26.27;49.35;99291.13;3629376;39;20315;-65
2021/06/04 10:48:04;;;;;;;3.70;2.58;;;;;;;26.44;49.44;99290.72;3629219;39;20042;-65
2021/06/04 10:50:36;;;;;;;3.30;2.53;;;;;;;26.65;47.39;99278.59;3619403;39;20381;-65
2021/06/04 10:53:10;;;;;;;4.20;2.45;;;;;;;26.71;47.30;99287.50;3629095;39;20127;-65
2021/06/04 10:55:45;;;;;;;4.82;2.65;;;;;;;26.69;46.81;99276.13;3629383;39;20054;-64
2021/06/04 10:58:21;;;;;;;4.07;2.30;;;;;;;26.50;46.71;99277.97;3619437;39;20057;-66
2021/06/04 11:00:53;;;;;;;7.88;2.50;;;;;;;26.66;47.02;99274.00;3629284;39;20045;-65
2021/06/04 11:03:29;;;;;;;3.63;2.55;;;;;;;26.88;46.46;99265.34;3629447;39;20471;-65
2021/06/04 11:06:02;;;;;;;7.32;2.80;;;;;;;27.08;45.31;99254.25;3629426;39;20372;-64
2021/06/04 11:08:43;;;;;;;3.35;2.55;;;;;;;26.88;45.39;99258.03;3628887;39;20051;-64
2021/06/04 11:11:23;;;;;;;4.93;2.40;;;;;;;26.87;45.17;99261.03;3622411;39;20366;-64
2021/06/04 11:14:11;;;;;;;3.88;2.13;;;;;;;26.91;44.82;99259.38;3631246;39;20307;-63
2021/06/04 11:16:45;;;;;;;2.95;2.03;;;;;;;27.06;43.48;99258.34;3629278;39;20058;-64
2021/06/04 11:19:20;;;;;;;2.83;2.33;;;;;;;27.19;42.14;99265.00;3629569;39;20121;-65
2021/06/04 11:21:51;;;;;;;4.93;2.25;;;;;;;27.16;43.03;99264.50;3629151;39;20034;-66
2021/06/04 11:24:37;;;;;;;7.32;5.30;;;;;;;27.15;42.71;99253.94;3629980;39;20086;-65
2021/06/04 11:27:05;;;;;;;3.95;2.65;;;;;;;26.88;43.41;99249.09;3630960;39;20035;-66
2021/06/04 11:29:36;;;;;;;3.50;2.40;;;;;;;26.66;43.11;99250.41;3621934;39;20030;-66
2021/06/04 11:32:11;;;;;;;4.90;2.63;;;;;;;26.50;43.25;99261.72;3630719;39;20034;-64
2021/06/04 11:34:47;;;;;;;3.63;2.58;;;;;;;26.32;44.22;99263.97;3630491;39;20483;-65
2021/06/04 11:37:20;;;;;;;3.63;2.63;;;;;;;26.31;45.01;99267.78;3630669;39;20101;-65
2021/06/04 11:39:51;;;;;;;4.50;2.70;;;;;;;26.08;45.56;99257.69;3630806;39;20031;-65
2021/06/04 11:42:26;;;;;;;5.45;2.72;;;;;;;25.96;46.08;99254.53;3630765;39;20019;-64
2021/06/04 11:44:56;;;;;;;8.73;2.88;;;;;;;25.87;46.67;99251.63;3630714;39;20038;-65
2021/06/04 11:47:35;;;;;;;3.20;2.80;;;;;;;25.82;47.09;99246.25;3629883;39;20104;-66
2021/06/04 11:50:12;;;;;;;4.93;2.70;;;;;;;25.68;47.22;99238.75;3621021;39;20054;-65
2021/06/04 11:52:42;;;;;;;4.72;3.03;;;;;;;25.59;48.15;99235.00;3630433;39;20126;-65
2021/06/04 11:55:13;;;;;;;5.38;2.50;;;;;;;25.51;48.33;99230.16;3630529;39;20042;-66
2021/06/04 11:57:45;;;;;;;6.43;2.92;;;;;;;25.32;48.58;99223.81;3629969;39;20349;-65